Date,TemperatureHighF,TemperatureAvgF,TemperatureLowF,DewpointHighF,DewpointAvgF,DewpointLowF,HumidityHigh,HumidityAvg,HumidityLow,PressureMaxIn,PressureMinIn,WindSpeedMaxMPH,WindSpeedAvgMPH,GustSpeedMaxMPH,PrecipitationSumIn
2013-1-1,16.0,5.2,-3.0,5.0,-0.3,-7.0,91,78,60,0.00,40.00,9,3,13,0.00
2013-1-2,30.0,17.2,1.0,29.0,14.5,-1.0,99,88,71,0.00,40.00,9,4,14,0.00
2013-1-3,30.0,18.2,5.0,30.0,15.0,4.0,99,87,75,0.00,40.00,15,8,23,0.16
2013-1-4,36.0,20.6,8.0,25.0,17.4,8.0,99,88,59,0.00,40.00,12,6,19,0.00
2013-1-5,38.0,26.7,14.0,36.0,25.0,14.0,99,93,76,0.00,40.00,16,7,26,0.00
2013-1-6,27.0,19.7,13.0,22.0,16.0,9.0,99,85,71,0.00,40.00,16,6,25,0.00
2013-1-7,44.0,30.7,19.0,31.0,25.2,18.0,99,81,57,0.00,40.00,12,5,18,0.00
2013-1-8,44.0,33.1,21.0,35.0,29.9,21.0,99,88,68,0.00,40.00,14,5,17,0.00
2013-1-9,42.0,35.6,26.0,34.0,32.2,26.0,99,88,69,0.00,40.00,12,5,22,0.00
2013-1-10,40.0,34.3,28.0,37.0,32.0,28.0,99,92,64,0.00,40.00,13,5,19,0.59
2013-1-11,51.0,43.0,34.0,49.0,42.6,34.0,99,98,86,0.00,40.00,20,6,25,0.20
2013-1-12,51.0,25.5,16.0,47.0,18.9,7.0,99,75,66,0.00,40.00,20,12,36,0.00
2013-1-13,18.0,13.2,9.0,10.0,6.4,3.0,81,73,66,0.00,40.00,16,9,24,0.00
2013-1-14,30.0,17.1,6.0,15.0,9.5,5.0,96,74,43,0.00,40.00,9,3,13,0.00
2013-1-15,34.0,22.3,13.0,19.0,13.9,10.0,88,71,45,0.00,40.00,10,4,15,0.00
2013-1-16,47.0,32.3,17.0,37.0,25.7,13.0,99,77,62,0.00,40.00,17,8,24,0.00
2013-1-17,36.0,25.1,15.0,30.0,18.6,10.0,99,78,46,0.00,40.00,16,5,21,0.00
2013-1-18,55.0,39.7,22.0,36.0,30.8,20.0,95,72,46,0.00,40.00,22,9,35,0.00
2013-1-19,52.0,39.8,18.0,36.0,30.9,7.0,89,71,49,0.00,40.00,26,12,38,0.00
2013-1-20,18.0,12.1,6.0,11.0,6.3,2.0,91,77,61,0.00,40.00,17,8,26,0.29
2013-1-21,6.0,2.6,-3.0,2.0,-5.4,-13.0,84,68,55,0.00,40.00,19,10,32,0.00
2013-1-22,15.0,7.3,-3.0,7.0,-1.1,-6.0,86,69,54,0.00,40.00,9,3,12,0.00
2013-1-23,27.0,16.5,6.0,18.0,8.7,-4.0,86,70,60,0.00,40.00,21,11,34,0.00
2013-1-24,21.0,10.7,3.0,8.0,-1.8,-7.0,67,56,45,0.00,40.00,17,9,22,0.00
2013-1-25,36.0,23.8,12.0,25.0,14.1,4.0,93,66,55,0.00,40.00,19,10,27,0.00
2013-1-26,33.0,20.2,7.0,17.0,8.8,2.0,84,63,41,0.00,40.00,11,5,16,0.00
2013-1-27,37.0,32.5,28.0,37.0,29.5,17.0,99,89,59,0.00,40.00,8,4,14,1.52
2013-1-28,43.0,36.6,33.0,42.0,36.5,33.0,99,99,99,0.00,40.00,14,4,21,1.40
2013-1-29,56.0,39.0,33.0,56.0,39.0,33.0,99,99,99,0.00,40.00,18,8,24,0.38
2013-1-30,34.0,23.5,16.0,34.0,21.5,11.0,99,92,77,0.00,40.00,26,16,37,5.05
2013-1-31,16.0,4.7,-1.0,11.0,-2.6,-8.0,82,70,67,0.00,40.00,21,14,30,0.00